createdAt,value
2022-10-24T00:00:32.025Z,52.44
2022-10-24T00:05:33.461Z,52.51
2022-10-24T00:10:36.353Z,52.49
2022-10-24T00:15:37.721Z,52.60
2022-10-24T00:20:39.191Z,52.23
2022-10-24T00:25:40.586Z,52.43
2022-10-24T00:30:41.936Z,52.16
2022-10-24T00:35:43.288Z,52.40
2022-10-24T00:40:44.671Z,52.41
2022-10-24T00:45:59.233Z,52.30
2022-10-24T00:51:16.462Z,52.25
2022-10-24T00:56:18.580Z,52.33
2022-10-24T01:01:19.984Z,52.42
2022-10-24T01:06:29.640Z,51.95
2022-10-24T01:11:39.941Z,52.08
2022-10-24T01:16:41.131Z,52.47
2022-10-24T01:22:03.355Z,52.31
2022-10-24T01:27:27.637Z,52.00
2022-10-24T01:32:36.616Z,51.98
2022-10-24T01:37:51.505Z,52.27
2022-10-24T01:42:53.304Z,52.00
2022-10-24T01:47:54.779Z,52.48
2022-10-24T01:52:56.193Z,52.10
2022-10-24T01:57:57.553Z,52.12
2022-10-24T02:03:00.990Z,52.05
2022-10-24T02:08:07.620Z,51.78
2022-10-24T02:13:13.312Z,51.88
2022-10-24T02:18:14.685Z,52.07
2022-10-24T02:23:31.057Z,51.56
2022-10-24T02:28:38.973Z,51.86
2022-10-24T02:33:40.474Z,51.82
2022-10-24T02:38:42.832Z,51.61
2022-10-24T02:43:44.189Z,52.06
2022-10-24T02:48:48.501Z,52.05
2022-10-24T02:53:49.949Z,52.28
2022-10-24T02:58:51.374Z,52.13
2022-10-24T03:03:52.757Z,51.95
2022-10-24T03:08:54.118Z,52.01
2022-10-24T03:13:55.512Z,51.52
2022-10-24T03:18:56.886Z,51.96
2022-10-24T03:23:58.340Z,51.90
2022-10-24T03:28:59.756Z,52.09
2022-10-24T03:34:01.109Z,51.74
2022-10-24T03:39:02.464Z,51.83
2022-10-24T03:44:03.857Z,51.60
2022-10-24T03:49:05.218Z,51.91
2022-10-24T03:54:06.577Z,51.91
2022-10-24T03:59:07.989Z,51.75
2022-10-24T04:04:09.348Z,52.13
2022-10-24T04:09:10.941Z,51.96
2022-10-24T04:14:12.403Z,51.60
2022-10-24T04:19:13.837Z,51.76
2022-10-24T04:24:15.419Z,51.67
2022-10-24T04:29:16.814Z,51.29
2022-10-24T04:34:18.229Z,51.60
2022-10-24T04:39:19.689Z,51.22
2022-10-24T04:44:21.048Z,51.51
2022-10-24T04:49:22.432Z,51.39
2022-10-24T04:54:23.792Z,51.17
2022-10-24T04:59:25.161Z,50.97
2022-10-24T05:04:26.516Z,51.09
2022-10-24T05:09:27.879Z,51.21
2022-10-24T05:14:29.317Z,51.10
2022-10-24T05:19:30.694Z,51.32
2022-10-24T05:24:32.465Z,51.13
2022-10-24T05:29:33.862Z,50.77
2022-10-24T05:34:35.228Z,50.91
2022-10-24T05:39:36.602Z,51.00
2022-10-24T05:44:38.037Z,50.68
2022-10-24T05:49:39.424Z,50.86
2022-10-24T05:54:55.046Z,50.96
2022-10-24T06:00:02.191Z,50.74
2022-10-24T06:05:03.824Z,50.67
2022-10-24T06:10:05.755Z,50.86
2022-10-24T06:15:07.900Z,50.86
2022-10-24T06:20:09.736Z,50.41
2022-10-24T06:25:14.001Z,50.46
2022-10-24T06:30:15.425Z,50.97
2022-10-24T06:35:16.792Z,50.65
2022-10-24T06:40:18.368Z,50.48
2022-10-24T06:45:21.639Z,50.80
2022-10-24T06:50:23.034Z,50.91
2022-10-24T06:55:24.390Z,50.45
2022-10-24T07:00:26.158Z,50.83
2022-10-24T07:05:27.570Z,50.57
2022-10-24T07:10:28.968Z,50.63
2022-10-24T07:15:30.335Z,50.71
2022-10-24T07:20:31.725Z,50.84
2022-10-24T07:25:33.152Z,50.97
2022-10-24T07:30:34.642Z,51.00
2022-10-24T07:35:41.333Z,50.82
2022-10-24T07:40:42.969Z,50.71
2022-10-24T07:45:49.037Z,50.85
2022-10-24T07:50:54.217Z,51.06
2022-10-24T07:55:55.685Z,51.33
2022-10-24T08:01:05.714Z,51.01
2022-10-24T08:06:08.725Z,51.14
2022-10-24T08:11:11.559Z,51.23
2022-10-24T08:16:13.649Z,50.98
2022-10-24T08:21:15.624Z,51.26
2022-10-24T08:26:18.372Z,51.03
2022-10-24T08:31:20.714Z,51.29
2022-10-24T08:36:23.296Z,51.40
2022-10-24T08:41:29.356Z,51.37
2022-10-24T08:46:41.825Z,51.76
2022-10-24T08:51:48.701Z,51.67
2022-10-24T08:56:51.212Z,51.25
2022-10-24T09:02:13.564Z,51.81
2022-10-24T09:07:18.032Z,51.69
2022-10-24T09:12:20.329Z,51.63
2022-10-24T09:17:28.893Z,51.96
2022-10-24T09:22:32.025Z,51.58
2022-10-24T09:27:35.038Z,51.64
2022-10-24T09:32:36.432Z,51.85
2022-10-24T09:37:42.750Z,51.89
2022-10-24T09:43:14.968Z,52.04
2022-10-24T09:48:18.080Z,52.06
2022-10-24T09:53:27.941Z,52.25
2022-10-24T09:58:32.449Z,51.98
2022-10-24T10:03:34.393Z,52.50
2022-10-24T10:08:35.756Z,52.47
2022-10-24T10:13:50.066Z,52.70
2022-10-24T10:18:52.431Z,52.61
2022-10-24T10:23:55.045Z,52.52
2022-10-24T10:29:08.797Z,52.75
2022-10-24T10:34:21.368Z,52.98
2022-10-24T10:39:49.935Z,52.70
2022-10-24T10:45:12.809Z,52.85
2022-10-24T10:50:38.705Z,52.87
2022-10-24T10:55:46.004Z,53.14
2022-10-24T11:01:14.277Z,53.07
2022-10-24T11:06:55.203Z,52.99
2022-10-24T11:12:03.168Z,52.96
2022-10-24T11:17:11.167Z,52.99
2022-10-24T11:22:17.616Z,52.71
2022-10-24T11:27:22.070Z,52.74
2022-10-24T11:32:29.570Z,52.44
2022-10-24T11:37:37.948Z,52.50
2022-10-24T11:42:57.105Z,51.90
2022-10-24T11:48:06.940Z,51.95
2022-10-24T11:53:28.439Z,51.67
2022-10-24T11:58:30.263Z,51.61
2022-10-24T12:03:53.085Z,51.30
2022-10-24T12:09:00.412Z,51.44
2022-10-24T12:14:19.212Z,51.30
2022-10-24T12:19:20.920Z,51.21
2022-10-24T12:24:33.075Z,51.23
2022-10-24T12:29:35.780Z,51.01
2022-10-24T12:34:46.120Z,50.50
2022-10-24T12:39:53.466Z,50.60
2022-10-24T12:45:02.008Z,50.53
2022-10-24T12:50:21.593Z,50.16
2022-10-24T12:55:39.705Z,50.20
2022-10-24T13:00:41.394Z,50.05
2022-10-24T13:06:27.793Z,49.85
2022-10-24T13:12:04.976Z,49.55
2022-10-24T13:17:27.788Z,49.47
2022-10-24T13:22:29.813Z,49.60
2022-10-24T13:27:31.397Z,49.40
2022-10-24T13:32:35.702Z,49.26
2022-10-24T13:37:47.417Z,49.31
2022-10-24T13:42:59.882Z,49.13
2022-10-24T13:48:05.805Z,48.86
2022-10-24T13:53:15.314Z,48.95
2022-10-24T13:58:22.941Z,48.94
2022-10-24T14:03:25.671Z,49.05
2022-10-24T14:08:50.864Z,48.72
2022-10-24T14:14:02.500Z,48.99
2022-10-24T14:19:13.602Z,49.04
2022-10-24T14:24:21.836Z,48.90
2022-10-24T14:29:23.961Z,48.81
2022-10-24T14:34:25.373Z,49.05
2022-10-24T14:39:26.758Z,49.10
2022-10-24T14:44:28.116Z,48.92
2022-10-24T14:49:33.258Z,48.56
2022-10-24T14:54:34.746Z,48.88
2022-10-24T14:59:37.367Z,48.87
2022-10-24T15:04:40.288Z,49.00
2022-10-24T15:09:58.157Z,48.77
2022-10-24T15:15:22.277Z,48.67
2022-10-24T15:20:27.488Z,49.00
2022-10-24T15:25:34.837Z,48.99
2022-10-24T15:30:38.207Z,48.81
2022-10-24T15:35:40.406Z,48.70
2022-10-24T15:40:43.721Z,48.62
2022-10-24T15:45:45.103Z,48.73
2022-10-24T15:50:46.513Z,48.73
2022-10-24T15:55:47.944Z,48.40
2022-10-24T16:00:50.878Z,48.42
2022-10-24T16:05:53.567Z,48.55
2022-10-24T16:10:54.925Z,48.60
2022-10-24T16:15:56.346Z,48.55
2022-10-24T16:20:58.328Z,48.38
2022-10-24T16:25:59.936Z,48.11
2022-10-24T16:31:01.300Z,48.28
2022-10-24T16:36:02.677Z,48.32
2022-10-24T16:41:04.143Z,48.32
2022-10-24T16:46:06.269Z,48.21
2022-10-24T16:51:18.056Z,48.40
2022-10-24T16:56:19.433Z,48.39
2022-10-24T17:01:22.905Z,47.96
2022-10-24T17:06:24.413Z,47.80
2022-10-24T17:11:44.256Z,48.36
2022-10-24T17:16:46.497Z,48.14
2022-10-24T17:21:49.172Z,48.14
2022-10-24T17:26:50.604Z,48.38
2022-10-24T17:31:52.184Z,48.45
2022-10-24T17:42:18.493Z,48.76
2022-10-24T17:47:19.882Z,48.75
2022-10-24T17:52:22.681Z,48.90
2022-10-24T17:57:24.044Z,48.74
2022-10-24T18:02:25.548Z,48.79
2022-10-24T18:07:26.981Z,49.21
2022-10-24T18:12:28.337Z,48.96
2022-10-24T18:17:29.701Z,48.82
2022-10-24T18:22:34.870Z,49.01
2022-10-24T18:27:36.347Z,49.14
2022-10-24T18:32:37.781Z,49.06
2022-10-24T18:37:39.276Z,48.92
2022-10-24T18:42:57.768Z,49.40
2022-10-24T18:47:59.337Z,49.38
2022-10-24T18:53:21.398Z,49.29
2022-10-24T18:58:23.772Z,49.21
2022-10-24T19:03:29.641Z,49.23
2022-10-24T19:08:30.867Z,49.46
2022-10-24T19:13:32.237Z,49.51
2022-10-24T19:18:35.056Z,49.57
2022-10-24T19:23:36.952Z,49.56
2022-10-24T19:28:38.367Z,49.32
2022-10-24T19:33:41.118Z,49.43
2022-10-24T19:38:42.508Z,49.67
2022-10-24T19:43:43.880Z,49.63
2022-10-24T19:48:48.290Z,49.87
2022-10-24T19:53:49.849Z,49.76
2022-10-24T19:58:51.284Z,50.04
2022-10-24T20:03:52.640Z,49.91
2022-10-24T20:08:54.051Z,49.96
2022-10-24T20:13:55.440Z,49.85
2022-10-24T20:18:56.800Z,50.17
2022-10-24T20:23:58.171Z,49.90
2022-10-24T20:28:59.542Z,50.00
2022-10-24T20:34:06.682Z,50.01
2022-10-24T20:39:09.557Z,50.20
2022-10-24T20:44:11.118Z,49.88
2022-10-24T20:49:12.480Z,49.97
2022-10-24T20:54:13.838Z,50.12
2022-10-24T20:59:15.511Z,50.12
2022-10-24T21:04:19.941Z,50.15
2022-10-24T21:09:22.364Z,49.83
2022-10-24T21:14:23.727Z,50.11
2022-10-24T21:19:26.565Z,50.27
2022-10-24T21:24:27.917Z,50.18
2022-10-24T21:29:33.971Z,50.22
2022-10-24T21:34:35.626Z,49.97
2022-10-24T21:39:37.001Z,50.07
2022-10-24T21:44:38.400Z,50.12
2022-10-24T21:49:39.800Z,50.03
2022-10-24T21:54:41.157Z,50.29
2022-10-24T21:59:42.517Z,50.38
2022-10-24T22:04:43.882Z,50.25
2022-10-24T22:09:45.976Z,50.08
2022-10-24T22:14:47.332Z,50.32
2022-10-24T22:19:48.696Z,50.08
2022-10-24T22:24:50.083Z,50.27
2022-10-24T22:29:51.453Z,50.00
2022-10-24T22:34:52.884Z,50.15
2022-10-24T22:39:54.395Z,50.13
2022-10-24T22:44:56.286Z,50.04
2022-10-24T22:50:08.237Z,50.14
2022-10-24T22:55:15.666Z,50.43
2022-10-24T23:00:17.714Z,50.11
2022-10-24T23:05:29.461Z,50.30
2022-10-24T23:10:30.981Z,50.20
2022-10-24T23:15:32.456Z,50.11
2022-10-24T23:20:41.559Z,50.18
2022-10-24T23:25:43.988Z,50.38
2022-10-24T23:30:45.469Z,50.26
2022-10-24T23:35:47.058Z,50.22
2022-10-24T23:40:48.760Z,50.19
2022-10-24T23:46:06.377Z,50.19
2022-10-24T23:51:13.548Z,50.27
2022-10-24T23:56:15.325Z,50.03
